createdAt,value
2022-10-13T00:00:43.665Z,9.73
2022-10-13T00:03:10.747Z,10.63
2022-10-13T00:05:42.648Z,11.98
2022-10-13T00:08:10.149Z,10.80
2022-10-13T00:10:38.660Z,9.07
2022-10-13T00:13:07.305Z,9.80
2022-10-13T00:15:39.006Z,8.25
2022-10-13T00:18:05.802Z,8.68
2022-10-13T00:20:32.436Z,9.95
2022-10-13T00:22:59.053Z,10.50
2022-10-13T00:25:25.671Z,9.85
2022-10-13T00:27:52.281Z,10.10
2022-10-13T00:30:18.962Z,10.35
2022-10-13T00:32:45.890Z,9.73
2022-10-13T00:35:12.489Z,8.93
2022-10-13T00:37:39.085Z,9.70
2022-10-13T00:40:07.448Z,9.90
2022-10-13T00:42:34.120Z,10.13
2022-10-13T00:45:18.316Z,9.10
2022-10-13T00:47:48.091Z,8.23
2022-10-13T00:50:17.925Z,8.68
2022-10-13T00:52:45.778Z,9.98
2022-10-13T00:55:16.854Z,8.85
2022-10-13T00:57:46.402Z,8.68
2022-10-13T01:00:13.687Z,8.77
2022-10-13T01:02:40.297Z,8.27
2022-10-13T01:05:07.912Z,9.30
2022-10-13T01:07:35.648Z,9.10
2022-10-13T01:10:03.035Z,9.68
2022-10-13T01:12:44.947Z,8.82
2022-10-13T01:15:18.689Z,8.48
2022-10-13T01:18:12.985Z,8.57
2022-10-13T01:20:55.091Z,7.95
2022-10-13T01:23:45.476Z,8.65
2022-10-13T01:26:42.617Z,8.77
2022-10-13T01:29:27.884Z,8.45
2022-10-13T01:32:21.048Z,9.68
2022-10-13T01:35:08.189Z,8.10
2022-10-13T01:37:45.698Z,8.93
2022-10-13T01:40:30.279Z,10.23
2022-10-13T01:43:06.908Z,8.52
2022-10-13T01:45:52.369Z,8.63
2022-10-13T01:48:20.184Z,9.40
2022-10-13T01:50:48.492Z,9.43
2022-10-13T01:53:17.986Z,10.57
2022-10-13T01:55:56.097Z,9.25
2022-10-13T01:58:25.314Z,9.15
2022-10-13T02:01:13.797Z,9.63
2022-10-13T02:03:55.793Z,9.18
2022-10-13T02:06:28.030Z,8.95
2022-10-13T02:09:22.175Z,8.60
2022-10-13T02:11:53.911Z,8.65
2022-10-13T02:14:26.332Z,9.45
2022-10-13T02:16:55.673Z,9.13
2022-10-13T02:19:22.827Z,9.13
2022-10-13T02:21:50.434Z,9.00
2022-10-13T02:24:17.051Z,8.93
2022-10-13T02:26:44.857Z,9.15
2022-10-13T02:29:14.343Z,9.50
2022-10-13T02:31:41.794Z,10.05
2022-10-13T02:34:08.767Z,10.32
2022-10-13T02:36:37.770Z,10.07
2022-10-13T02:39:05.952Z,9.75
2022-10-13T02:41:32.559Z,9.02
2022-10-13T02:43:59.389Z,11.48
2022-10-13T02:46:26.036Z,8.98
2022-10-13T02:48:52.685Z,9.07
2022-10-13T02:51:19.567Z,9.30
2022-10-13T02:53:46.514Z,9.15
2022-10-13T02:56:13.327Z,8.93
2022-10-13T02:58:39.922Z,8.57
2022-10-13T03:01:08.926Z,9.43
2022-10-13T03:03:35.947Z,9.57
2022-10-13T03:06:02.696Z,8.82
2022-10-13T03:08:29.554Z,9.25
2022-10-13T03:10:56.217Z,8.70
2022-10-13T03:13:22.761Z,9.05
2022-10-13T03:15:49.496Z,8.98
2022-10-13T03:18:16.456Z,9.50
2022-10-13T03:20:43.075Z,9.18
2022-10-13T03:23:09.673Z,9.10
2022-10-13T03:25:38.222Z,8.82
2022-10-13T03:28:04.967Z,8.55
2022-10-13T03:30:31.573Z,8.68
2022-10-13T03:32:58.246Z,12.27
2022-10-13T03:35:24.855Z,8.93
2022-10-13T03:37:51.443Z,9.98
2022-10-13T03:40:18.077Z,9.10
2022-10-13T03:42:44.783Z,8.52
2022-10-13T03:45:11.699Z,9.10
2022-10-13T03:47:38.430Z,8.75
2022-10-13T03:50:06.320Z,9.80
2022-10-13T03:52:33.253Z,8.90
2022-10-13T03:54:59.888Z,11.35
2022-10-13T03:57:26.525Z,10.20
2022-10-13T03:59:55.801Z,9.40
2022-10-13T04:02:22.921Z,10.15
2022-10-13T04:04:50.312Z,10.43
2022-10-13T04:07:16.922Z,9.48
2022-10-13T04:09:43.490Z,9.20
2022-10-13T04:12:10.159Z,9.23
2022-10-13T04:14:36.723Z,11.40
2022-10-13T04:17:03.426Z,10.25
2022-10-13T04:19:29.983Z,8.60
2022-10-13T04:21:56.920Z,10.13
2022-10-13T04:24:23.638Z,10.85
2022-10-13T04:26:50.217Z,9.70
2022-10-13T04:29:16.790Z,8.77
2022-10-13T04:31:43.869Z,10.40
2022-10-13T04:34:12.051Z,8.52
2022-10-13T04:36:38.654Z,8.85
2022-10-13T04:39:05.277Z,8.98
2022-10-13T04:41:31.888Z,9.63
2022-10-13T04:44:02.019Z,8.52
2022-10-13T04:46:28.983Z,10.02
2022-10-13T04:48:55.747Z,10.82
2022-10-13T04:51:23.963Z,10.68
2022-10-13T04:54:01.543Z,10.43
2022-10-13T04:56:28.780Z,12.00
2022-10-13T04:58:55.458Z,13.18
2022-10-13T05:01:24.349Z,16.05
2022-10-13T05:04:02.351Z,11.48
2022-10-13T05:06:34.810Z,12.32
2022-10-13T05:09:02.021Z,10.80
2022-10-13T05:11:29.491Z,10.85
2022-10-13T05:13:57.314Z,9.52
2022-10-13T05:16:24.623Z,10.52
2022-10-13T05:18:53.549Z,10.02
2022-10-13T05:21:30.998Z,9.50
2022-10-13T05:23:58.038Z,10.75
2022-10-13T05:26:28.987Z,9.27
2022-10-13T05:28:56.959Z,9.32
2022-10-13T05:31:25.072Z,9.57
2022-10-13T05:33:52.488Z,10.02
2022-10-13T05:36:33.049Z,10.10
2022-10-13T05:39:03.991Z,10.45
2022-10-13T05:41:31.153Z,10.35
2022-10-13T05:44:00.707Z,11.23
2022-10-13T05:46:27.622Z,10.85
2022-10-13T05:48:54.957Z,10.90
2022-10-13T05:51:28.263Z,9.70
2022-10-13T05:54:00.849Z,10.65
2022-10-13T05:56:33.142Z,9.98
2022-10-13T05:59:02.749Z,9.30
2022-10-13T06:01:34.223Z,9.55
2022-10-13T06:04:06.034Z,8.48
2022-10-13T06:06:32.745Z,9.95
2022-10-13T06:09:01.082Z,9.70
2022-10-13T06:11:27.774Z,9.95
2022-10-13T06:13:54.568Z,11.13
2022-10-13T06:16:21.197Z,10.98
2022-10-13T06:18:47.865Z,11.80
2022-10-13T06:21:14.518Z,11.10
2022-10-13T06:23:41.093Z,12.35
2022-10-13T06:26:09.010Z,10.45
2022-10-13T06:28:35.891Z,9.43
2022-10-13T06:31:07.296Z,10.82
2022-10-13T06:33:34.569Z,13.77
2022-10-13T06:36:03.924Z,12.65
2022-10-13T06:38:30.923Z,10.65
2022-10-13T06:41:02.129Z,10.82
2022-10-13T06:43:35.716Z,12.18
2022-10-13T06:46:06.572Z,11.52
2022-10-13T06:48:33.203Z,10.50
2022-10-13T06:51:12.748Z,10.93
2022-10-13T06:53:39.407Z,10.88
2022-10-13T06:56:08.335Z,12.80
2022-10-13T06:58:38.628Z,12.50
2022-10-13T07:01:06.033Z,13.10
2022-10-13T07:03:33.318Z,10.20
2022-10-13T07:06:04.806Z,11.93
2022-10-13T07:08:32.666Z,10.23
2022-10-13T07:10:59.653Z,10.73
2022-10-13T07:13:26.374Z,10.03
2022-10-13T07:15:52.983Z,12.93
2022-10-13T07:18:19.649Z,10.17
2022-10-13T07:20:46.285Z,9.63
2022-10-13T07:23:12.898Z,9.83
2022-10-13T07:25:39.756Z,12.30
2022-10-13T07:28:06.371Z,11.32
2022-10-13T07:30:32.957Z,10.97
2022-10-13T07:33:00.121Z,12.13
2022-10-13T07:35:30.432Z,11.32
2022-10-13T07:37:57.647Z,10.10
2022-10-13T07:40:24.501Z,10.27
2022-10-13T07:42:51.279Z,10.70
2022-10-13T07:45:18.151Z,9.40
2022-10-13T07:47:44.801Z,12.35
2022-10-13T07:50:11.810Z,12.43
2022-10-13T07:52:38.558Z,12.40
2022-10-13T07:55:05.690Z,13.77
2022-10-13T07:57:32.311Z,11.20
2022-10-13T07:59:58.994Z,10.23
2022-10-13T08:02:26.271Z,10.20
2022-10-13T08:04:53.169Z,12.03
2022-10-13T08:07:19.954Z,12.17
2022-10-13T08:09:46.786Z,11.67
2022-10-13T08:12:13.454Z,11.87
2022-10-13T08:14:40.195Z,12.03
2022-10-13T08:17:06.831Z,12.40
2022-10-13T08:19:33.509Z,14.02
2022-10-13T08:22:00.595Z,13.98
2022-10-13T08:24:27.633Z,14.55
2022-10-13T08:26:54.415Z,19.57
2022-10-13T08:29:23.032Z,18.70
2022-10-13T08:31:54.773Z,15.90
2022-10-13T08:34:22.906Z,17.23
2022-10-13T08:36:52.898Z,15.17
2022-10-13T08:39:19.780Z,15.07
2022-10-13T08:41:46.457Z,15.77
2022-10-13T08:47:21.636Z,15.30
2022-10-13T08:49:48.412Z,18.10
2022-10-13T08:52:24.653Z,17.23
2022-10-13T08:54:53.227Z,16.20
2022-10-13T08:57:20.768Z,14.27
2022-10-13T08:59:49.120Z,17.30
2022-10-13T09:02:31.104Z,15.13
2022-10-13T09:05:01.637Z,13.40
2022-10-13T09:07:37.496Z,11.67
2022-10-13T09:10:04.657Z,11.20
2022-10-13T09:12:33.804Z,12.70
2022-10-13T09:15:09.715Z,10.87
2022-10-13T09:17:41.252Z,10.73
2022-10-13T09:20:27.538Z,10.20
2022-10-13T09:23:01.285Z,9.50
2022-10-13T09:25:27.938Z,10.30
2022-10-13T09:27:58.017Z,8.50
2022-10-13T09:30:42.347Z,9.02
2022-10-13T09:33:09.010Z,10.80
2022-10-13T09:35:36.946Z,10.13
2022-10-13T09:38:03.492Z,9.37
2022-10-13T09:40:33.152Z,9.33
2022-10-13T09:43:02.360Z,8.97
2022-10-13T09:45:32.153Z,9.77
2022-10-13T09:48:03.773Z,9.53
2022-10-13T09:50:32.369Z,9.50
2022-10-13T09:53:17.503Z,8.93
2022-10-13T09:55:48.607Z,9.07
2022-10-13T09:58:30.890Z,8.80
2022-10-13T10:00:58.627Z,9.27
2022-10-13T10:03:34.272Z,8.77
2022-10-13T10:09:05.492Z,8.63
2022-10-13T10:11:44.640Z,8.83
2022-10-13T10:14:34.539Z,9.13
2022-10-13T10:17:23.482Z,9.80
2022-10-13T10:20:07.944Z,11.03
2022-10-13T10:22:49.439Z,9.38
2022-10-13T10:25:33.201Z,9.07
2022-10-13T10:28:12.931Z,9.40
2022-10-13T10:31:01.598Z,9.03
2022-10-13T10:33:40.790Z,9.37
2022-10-13T10:36:16.877Z,8.70
2022-10-13T10:38:54.260Z,10.10
2022-10-13T10:41:36.765Z,8.80
2022-10-13T10:44:17.803Z,13.03
2022-10-13T10:46:49.815Z,17.67
2022-10-13T10:49:26.977Z,10.17
2022-10-13T10:51:54.440Z,8.80
2022-10-13T10:54:39.323Z,7.83
2022-10-13T10:57:27.511Z,8.23
2022-10-13T11:00:05.327Z,9.77
2022-10-13T11:02:48.804Z,8.73
2022-10-13T11:05:16.580Z,8.70
2022-10-13T11:07:43.131Z,7.40
2022-10-13T11:10:18.192Z,7.30
2022-10-13T11:12:50.865Z,7.70
2022-10-13T11:15:31.031Z,7.53
2022-10-13T11:17:57.766Z,7.13
2022-10-13T11:20:25.289Z,7.80
2022-10-13T11:22:58.042Z,7.78
2022-10-13T11:25:44.504Z,6.75
2022-10-13T11:28:23.458Z,7.93
2022-10-13T11:30:55.394Z,6.30
2022-10-13T11:33:40.133Z,6.80
2022-10-13T11:36:31.729Z,6.03
2022-10-13T11:39:17.302Z,6.93
2022-10-13T11:42:01.061Z,8.02
2022-10-13T11:44:56.778Z,7.43
2022-10-13T11:47:47.965Z,7.00
2022-10-13T11:50:25.882Z,7.40
2022-10-13T11:53:40.310Z,5.95
2022-10-13T11:56:22.675Z,7.10
2022-10-13T11:58:49.397Z,6.93
2022-10-13T12:01:17.307Z,7.00
2022-10-13T12:03:45.887Z,7.87
2022-10-13T12:06:33.575Z,6.75
2022-10-13T12:09:18.322Z,6.82
2022-10-13T12:11:45.714Z,7.93
2022-10-13T12:14:25.883Z,7.00
2022-10-13T12:19:31.579Z,6.15
2022-10-13T12:22:00.924Z,5.60
2022-10-13T12:24:29.955Z,5.87
2022-10-13T12:26:57.612Z,6.23
2022-10-13T12:29:32.188Z,6.37
2022-10-13T12:32:01.556Z,5.80
2022-10-13T12:34:32.694Z,5.10
2022-10-13T12:37:14.744Z,5.87
2022-10-13T12:39:41.505Z,5.60
2022-10-13T12:42:13.000Z,5.45
2022-10-13T12:44:40.063Z,5.87
2022-10-13T12:47:38.215Z,5.40
2022-10-13T12:50:33.075Z,5.60
2022-10-13T12:53:08.924Z,5.90
2022-10-13T12:55:45.479Z,6.70
2022-10-13T12:58:22.168Z,7.38
2022-10-13T13:01:21.006Z,5.07
2022-10-13T13:03:54.974Z,6.10
2022-10-13T13:06:26.956Z,5.80
2022-10-13T13:09:12.275Z,5.80
2022-10-13T13:11:39.244Z,5.80
2022-10-13T13:14:41.311Z,6.93
2022-10-13T13:17:17.391Z,6.90
2022-10-13T13:19:49.441Z,6.40
2022-10-13T13:22:16.769Z,6.38
2022-10-13T13:24:43.859Z,5.25
2022-10-13T13:27:36.472Z,6.90
2022-10-13T13:30:03.402Z,6.53
2022-10-13T13:32:30.969Z,6.80
2022-10-13T13:34:57.635Z,6.30
2022-10-13T13:37:31.566Z,7.00
2022-10-13T13:39:59.162Z,7.83
2022-10-13T13:42:28.357Z,7.30
2022-10-13T13:44:55.329Z,7.40
2022-10-13T13:47:24.670Z,6.57
2022-10-13T13:49:53.515Z,6.90
2022-10-13T13:52:21.714Z,6.63
2022-10-13T13:54:50.591Z,7.80
2022-10-13T13:57:18.062Z,8.13
2022-10-13T13:59:45.004Z,7.30
2022-10-13T14:02:21.246Z,7.40
2022-10-13T14:04:47.929Z,6.33
2022-10-13T14:07:14.586Z,8.37
2022-10-13T14:09:41.336Z,8.00
2022-10-13T14:12:08.533Z,7.33
2022-10-13T14:14:35.198Z,7.40
2022-10-13T14:17:03.575Z,7.10
2022-10-13T14:19:31.262Z,7.23
2022-10-13T14:21:58.037Z,6.60
2022-10-13T14:24:24.715Z,9.40
2022-10-13T14:26:51.550Z,7.80
2022-10-13T14:29:18.149Z,6.40
2022-10-13T14:31:44.794Z,7.65
2022-10-13T14:34:11.732Z,7.80
2022-10-13T14:36:38.360Z,6.65
2022-10-13T14:39:05.071Z,8.47
2022-10-13T14:41:31.721Z,8.60
2022-10-13T14:43:58.408Z,10.67
2022-10-13T14:46:25.689Z,8.77
2022-10-13T14:48:52.735Z,9.10
2022-10-13T14:51:19.319Z,7.93
2022-10-13T14:53:46.341Z,8.83
2022-10-13T14:56:24.812Z,8.70
2022-10-13T14:58:57.650Z,8.90
2022-10-13T15:01:24.664Z,8.20
2022-10-13T15:03:52.124Z,8.50
2022-10-13T15:06:23.934Z,8.75
2022-10-13T15:08:51.182Z,9.10
2022-10-13T15:11:19.277Z,9.90
2022-10-13T15:13:46.110Z,10.10
2022-10-13T15:16:17.781Z,9.80
2022-10-13T15:18:44.564Z,9.70
2022-10-13T15:21:12.038Z,9.30
2022-10-13T15:23:39.534Z,11.10
2022-10-13T15:26:06.947Z,11.63
2022-10-13T15:28:39.451Z,9.10
2022-10-13T15:31:06.623Z,8.73
2022-10-13T15:33:33.513Z,9.13
2022-10-13T15:36:00.654Z,11.50
2022-10-13T15:38:27.526Z,10.17
2022-10-13T15:41:02.647Z,9.60
2022-10-13T15:43:29.435Z,10.00
2022-10-13T15:45:59.933Z,8.90
2022-10-13T15:48:26.788Z,10.50
2022-10-13T15:50:53.523Z,9.77
2022-10-13T15:53:20.474Z,9.80
2022-10-13T15:55:47.940Z,11.40
2022-10-13T15:58:15.513Z,10.27
2022-10-13T16:00:42.828Z,11.27
2022-10-13T16:03:15.187Z,10.90
2022-10-13T16:05:46.068Z,11.27
2022-10-13T16:08:13.761Z,9.57
2022-10-13T16:10:42.120Z,10.20
2022-10-13T16:13:12.259Z,10.30
2022-10-13T16:15:39.102Z,9.83
2022-10-13T16:18:06.062Z,10.47
2022-10-13T16:20:35.113Z,10.03
2022-10-13T16:23:02.026Z,8.70
2022-10-13T16:25:30.233Z,9.03
2022-10-13T16:27:56.835Z,9.60
2022-10-13T16:30:23.438Z,10.00
2022-10-13T16:32:50.085Z,11.23
2022-10-13T16:35:16.901Z,11.73
2022-10-13T16:37:43.478Z,11.17
2022-10-13T16:40:10.854Z,11.93
2022-10-13T16:42:37.567Z,10.27
2022-10-13T16:45:04.774Z,9.37
2022-10-13T16:47:31.483Z,10.20
2022-10-13T16:49:58.153Z,9.13
2022-10-13T16:52:24.793Z,10.17
2022-10-13T16:54:51.433Z,10.40
2022-10-13T16:57:18.196Z,12.20
2022-10-13T16:59:44.915Z,10.27
2022-10-13T17:02:15.455Z,9.80
2022-10-13T17:04:42.819Z,10.73
2022-10-13T17:07:12.982Z,10.57
2022-10-13T17:09:39.714Z,11.17
2022-10-13T17:12:07.130Z,10.30
2022-10-13T17:14:34.852Z,9.57
2022-10-13T17:17:01.543Z,10.33
2022-10-13T17:19:29.201Z,9.83
2022-10-13T17:21:55.800Z,13.23
2022-10-13T17:24:22.498Z,9.30
2022-10-13T17:26:49.970Z,10.80
2022-10-13T17:29:16.583Z,10.70
2022-10-13T17:31:43.751Z,9.50
2022-10-13T17:34:10.362Z,11.03
2022-10-13T17:36:37.086Z,10.52
2022-10-13T17:39:08.845Z,11.43
2022-10-13T17:41:35.589Z,9.93
2022-10-13T17:44:02.571Z,9.97
2022-10-13T17:46:37.436Z,10.50
2022-10-13T17:49:05.409Z,11.10
2022-10-13T17:51:32.119Z,11.23
2022-10-13T17:53:59.510Z,11.37
2022-10-13T17:56:26.432Z,11.47
2022-10-13T17:58:53.427Z,14.27
2022-10-13T18:01:26.159Z,12.50
2022-10-13T18:03:55.801Z,11.67
2022-10-13T18:06:23.427Z,12.17
2022-10-13T18:08:50.743Z,11.30
2022-10-13T18:11:19.995Z,11.20
2022-10-13T18:13:47.090Z,9.90
2022-10-13T18:16:19.957Z,8.80
2022-10-13T18:18:47.714Z,9.30
2022-10-13T18:21:17.120Z,8.70
2022-10-13T18:23:43.721Z,8.83
2022-10-13T18:26:13.391Z,9.90
2022-10-13T18:28:43.756Z,8.57
2022-10-13T18:31:16.549Z,8.77
2022-10-13T18:33:43.779Z,7.33
2022-10-13T18:36:19.721Z,8.37
2022-10-13T18:38:47.412Z,11.20
2022-10-13T18:41:14.821Z,10.17
2022-10-13T18:43:41.553Z,9.97
2022-10-13T18:46:08.377Z,8.43
2022-10-13T18:48:35.710Z,9.17
2022-10-13T18:51:04.327Z,9.00
2022-10-13T18:53:30.910Z,9.13
2022-10-13T18:56:03.143Z,8.90
2022-10-13T18:58:30.805Z,8.03
2022-10-13T19:01:02.195Z,8.17
2022-10-13T19:03:29.467Z,7.97
2022-10-13T19:05:56.377Z,7.43
2022-10-13T19:08:24.443Z,8.13
2022-10-13T19:10:51.339Z,8.73
2022-10-13T19:13:18.558Z,8.80
2022-10-13T19:15:45.246Z,8.60
2022-10-13T19:18:12.272Z,9.90
2022-10-13T19:20:38.853Z,7.97
2022-10-13T19:23:06.886Z,9.30
2022-10-13T19:25:33.623Z,9.13
2022-10-13T19:28:00.261Z,7.77
2022-10-13T19:30:27.189Z,9.33
2022-10-13T19:32:53.932Z,8.90
2022-10-13T19:35:20.534Z,7.70
2022-10-13T19:37:47.162Z,7.30
2022-10-13T19:40:14.731Z,9.13
2022-10-13T19:42:42.448Z,10.90
2022-10-13T19:45:09.744Z,9.87
2022-10-13T19:47:36.686Z,11.13
2022-10-13T19:50:03.936Z,11.50
2022-10-13T19:52:30.606Z,10.45
2022-10-13T19:54:58.222Z,10.20
2022-10-13T19:57:24.814Z,10.40
2022-10-13T19:59:51.531Z,9.57
2022-10-13T20:02:18.122Z,9.20
2022-10-13T20:04:44.763Z,8.37
2022-10-13T20:07:11.453Z,9.50
2022-10-13T20:09:38.462Z,9.97
2022-10-13T20:12:05.264Z,9.53
2022-10-13T20:14:33.754Z,9.10
2022-10-13T20:17:00.541Z,8.70
2022-10-13T20:19:27.370Z,8.30
2022-10-13T20:21:54.224Z,22.38
2022-10-13T20:24:24.111Z,11.90
2022-10-13T20:26:50.776Z,8.20
2022-10-13T20:29:17.438Z,7.83
2022-10-13T20:31:45.145Z,8.47
2022-10-13T20:34:11.962Z,7.73
2022-10-13T20:36:39.326Z,8.40
2022-10-13T20:39:06.736Z,8.20
2022-10-13T20:41:33.706Z,8.90
2022-10-13T20:44:01.598Z,8.17
2022-10-13T20:46:28.232Z,11.13
2022-10-13T20:49:10.561Z,10.57
2022-10-13T20:51:39.108Z,9.03
2022-10-13T20:54:06.089Z,8.83
2022-10-13T20:56:32.991Z,8.32
2022-10-13T20:59:05.059Z,9.40
2022-10-13T21:01:32.760Z,8.30
2022-10-13T21:03:59.386Z,9.00
2022-10-13T21:06:26.959Z,8.87
2022-10-13T21:08:53.669Z,8.13
2022-10-13T21:11:22.450Z,9.17
2022-10-13T21:13:50.219Z,8.37
2022-10-13T21:16:24.004Z,9.70
2022-10-13T21:18:51.610Z,10.13
2022-10-13T21:21:21.168Z,9.27
2022-10-13T21:23:56.930Z,8.30
2022-10-13T21:26:25.141Z,8.10
2022-10-13T21:28:52.473Z,7.90
2022-10-13T21:31:21.582Z,10.43
2022-10-13T21:33:49.320Z,7.90
2022-10-13T21:36:31.006Z,7.57
2022-10-13T21:39:04.533Z,7.90
2022-10-13T21:41:31.512Z,7.30
2022-10-13T21:43:59.242Z,6.60
2022-10-13T21:46:28.490Z,7.60
2022-10-13T21:49:01.090Z,7.80
2022-10-13T21:51:33.650Z,8.83
2022-10-13T21:54:03.212Z,8.50
2022-10-13T21:56:30.558Z,7.97
2022-10-13T21:58:57.281Z,8.30
2022-10-13T22:01:24.767Z,7.83
2022-10-13T22:03:57.036Z,8.70
2022-10-13T22:06:24.206Z,7.90
2022-10-13T22:08:52.848Z,7.57
2022-10-13T22:11:20.845Z,7.10
2022-10-13T22:13:50.074Z,8.27
2022-10-13T22:16:20.530Z,8.43
2022-10-13T22:18:47.642Z,9.35
2022-10-13T22:21:20.779Z,7.90
2022-10-13T22:23:48.032Z,8.43
2022-10-13T22:26:16.751Z,8.00
2022-10-13T22:28:44.239Z,7.57
2022-10-13T22:31:13.040Z,9.40
2022-10-13T22:33:41.075Z,7.50
2022-10-13T22:36:14.890Z,8.37
2022-10-13T22:38:41.822Z,7.57
2022-10-13T22:41:09.307Z,7.80
2022-10-13T22:43:36.487Z,9.20
2022-10-13T22:46:03.818Z,7.30
2022-10-13T22:48:40.573Z,7.30
2022-10-13T22:51:07.799Z,8.37
2022-10-13T22:53:34.757Z,8.23
2022-10-13T22:56:05.954Z,8.67
2022-10-13T22:58:32.608Z,8.57
2022-10-13T23:01:05.542Z,7.83
2022-10-13T23:03:32.572Z,7.70
2022-10-13T23:05:59.186Z,9.53
2022-10-13T23:08:25.773Z,8.13
2022-10-13T23:10:52.362Z,8.70
2022-10-13T23:13:18.985Z,8.20
2022-10-13T23:15:45.602Z,8.07
2022-10-13T23:18:12.639Z,8.63
2022-10-13T23:20:40.290Z,8.37
2022-10-13T23:23:06.912Z,9.40
2022-10-13T23:25:37.540Z,10.27
2022-10-13T23:28:04.839Z,8.47
2022-10-13T23:30:31.433Z,8.57
2022-10-13T23:32:58.022Z,8.60
2022-10-13T23:35:24.735Z,8.20
2022-10-13T23:37:52.800Z,8.30
2022-10-13T23:40:19.875Z,8.90
2022-10-13T23:42:46.690Z,7.88
2022-10-13T23:45:13.561Z,8.50
2022-10-13T23:47:40.251Z,10.13
2022-10-13T23:50:07.215Z,9.17
2022-10-13T23:52:33.891Z,10.48
2022-10-13T23:55:00.498Z,8.40
2022-10-13T23:57:29.690Z,9.37
2022-10-13T23:59:56.296Z,8.55
